Medford, Oregon
Current Conditions -  °F | °C
As of 12:53 AM on Thursday 23 Oct 2014 (Local Time) from KMFR Reporting Station
Overcast Overcast  
Wind Chill: 62°   Ceiling: 7000
Heat Index: 62°   Visibility: 10mi
Dew Point: 50°   Wind: 10mph
Humidity: 65%   Direction: 210°SSW
Pressure: 29.84"   Gusts: NA
Location:  42.32°N, 122.88°W
Report Text: KMFR 230753Z AUTO 21009KT 10SM SCT060 BKN070 OVC110 17/10 A2984 RMK AO2 RAB28E52 SLP100 P0000 T01670100 402110100
Loading
Personal Weather Stations






























Interactive Weather Map
Tropical Storm Tracking
New forecast layout! Learn more

10-Day Weather Forecast

Advertisements
Track Severe Weather on mobile